Kokuhoumaru — JD2747 — position and weather

sailwx.info

Track history (hours):
 
Tides and Currents Weather Stations Pressure Air Temp Water Temp Dewpoint Dewpoint Depression Visibility Wind Speed Wind Dir Waves Ship Positions

Kokuhoumaru

Last reported at 2017-Nov-24 01:26 UTC. Time now 2017-Nov-24 04:13 UTC.
Position N 34°47' E 139°08'.

Length 81 m; draft 4.1 m.

Type: Tanker. MMSI: 431000628.

Date/timePositionNaut miles runAvg speedWind from/ knotsBaromVisibWave heightAir tempDewpointWater temp
2017-Nov-24 01:26N 34°47' E 139°08'511.5
2017-Nov-24 00:59N 34°52' E 139°12'911.6
2017-Nov-24 00:12N 34°58' E 139°20'311.2
2017-Nov-23 23:56N 34°59' E 139°23'611.4
2017-Nov-23 23:24N 35°02' E 139°29'511.8
2017-Nov-23 23:00N 35°04' E 139°34'612.5
2017-Nov-23 22:30N 35°07' E 139°41'612.1
2017-Nov-23 22:00N 35°12' E 139°46'611.9
2017-Nov-23 21:30N 35°18' E 139°44'510.8
2017-Nov-23 21:00N 35°23' E 139°45'0 0.7
2017-Nov-23 20:26N 35°23' E 139°45'0 0.1
2017-Nov-23 19:59N 35°23' E 139°45'0 0.0
2017-Nov-23 19:29N 35°23' E 139°45'0 0.1
2017-Nov-23 18:59N 35°23' E 139°45'0 0.0
2017-Nov-23 18:29N 35°23' E 139°45'0 0.0
2017-Nov-23 17:59N 35°23' E 139°45'0 0.0
2017-Nov-23 17:29N 35°23' E 139°45'0 0.0
2017-Nov-23 16:59N 35°23' E 139°45'0 0.0
2017-Nov-23 16:29N 35°23' E 139°45'0 0.0
2017-Nov-23 15:59N 35°23' E 139°45'0 0.0
2017-Nov-23 15:29N 35°23' E 139°45'0 0.0
2017-Nov-23 14:59N 35°23' E 139°45'0 0.0
2017-Nov-23 14:29N 35°23' E 139°45'0 0.0
2017-Nov-23 13:59N 35°23' E 139°45'0 0.0
2017-Nov-23 13:29N 35°23' E 139°45'0 0.0
2017-Nov-23 12:59N 35°23' E 139°45'0 0.0
2017-Nov-23 12:29N 35°23' E 139°45'0 0.0
2017-Nov-23 11:59N 35°23' E 139°45'0 0.0
2017-Nov-23 11:29N 35°23' E 139°45'0 0.0
2017-Nov-23 10:59N 35°23' E 139°45'0 0.0
2017-Nov-23 10:29N 35°23' E 139°45'0 0.0
2017-Nov-23 09:59N 35°23' E 139°45'0 0.0
2017-Nov-23 09:29N 35°23' E 139°45'0 0.1
2017-Nov-23 08:59N 35°23' E 139°45'0 0.1
2017-Nov-23 08:29N 35°24' E 139°45'0 0.0
2017-Nov-23 07:59N 35°24' E 139°45'0 0.0
2017-Nov-23 07:29N 35°24' E 139°45'0 0.0
2017-Nov-23 06:59N 35°24' E 139°45'0 0.0
2017-Nov-23 06:29N 35°24' E 139°45'0 0.0
2017-Nov-23 05:59N 35°24' E 139°45'0 0.0
2017-Nov-23 05:29N 35°24' E 139°45'0 0.0
2017-Nov-23 05:00N 35°24' E 139°45'3 6.0
2017-Nov-23 04:30N 35°26' E 139°45'1 1.4
2017-Nov-23 03:56N 35°27' E 139°45'0 0.0
2017-Nov-23 03:29N 35°27' E 139°45'0 0.0
2017-Nov-23 02:59N 35°27' E 139°45'0 0.0
2017-Nov-23 01:41N 35°27' E 139°45'0 0.0
2017-Nov-23 01:26N 35°27' E 139°45'0 0.0
2017-Nov-23 00:05N 35°27' E 139°45'0 0.1
2017-Nov-22 23:59N 35°27' E 139°45'0 0.1
2017-Nov-22 23:29N 35°27' E 139°45'0 0.0
2017-Nov-22 22:59N 35°27' E 139°45'0 0.1
2017-Nov-22 22:29N 35°27' E 139°45'0 0.0
2017-Nov-22 21:59N 35°27' E 139°45'1 2.7
2017-Nov-22 21:30N 35°28' E 139°44'0 0.2
2017-Nov-22 20:59N 35°28' E 139°44'0 0.0
2017-Nov-22 20:29N 35°28' E 139°44'0 0.0
2017-Nov-22 19:59N 35°28' E 139°44'0 0.0
2017-Nov-22 19:29N 35°28' E 139°44'  
2017-Nov-17 05:22N 34°37' E 134°57'3 9.3
2017-Nov-17 05:00N 34°37' E 135°01'5 9.2
2017-Nov-17 04:30N 34°36' E 135°06'611.7
2017-Nov-17 04:00N 34°35' E 135°13'612.2
2017-Nov-17 03:30N 34°33' E 135°21'4 0.8
2017-Nov-16 23:08N 34°32' E 135°25'0 0.6
2017-Nov-16 22:59N 34°32' E 135°25'1 2.9
2017-Nov-16 22:30N 34°33' E 135°24'3 6.0
2017-Nov-16 21:57N 34°32' E 135°19'0 0.1
2017-Nov-16 20:45N 34°32' E 135°19'0 0.0
2017-Nov-16 20:15N 34°32' E 135°19'0 0.2
2017-Nov-16 19:57N 34°32' E 135°19'0 0.1
2017-Nov-16 19:15N 34°32' E 135°19'0 0.0
2017-Nov-16 18:57N 34°32' E 135°19'0 0.0
2017-Nov-16 18:15N 34°32' E 135°19'0 0.0
2017-Nov-16 17:39N 34°32' E 135°19'0 0.1
2017-Nov-16 17:21N 34°32' E 135°19'0 0.0
2017-Nov-16 15:33N 34°32' E 135°19'0 0.0
2017-Nov-16 15:15N 34°32' E 135°19'0 0.0
2017-Nov-16 14:57N 34°32' E 135°19'0 0.0
2017-Nov-16 14:27N 34°32' E 135°19'0 0.0
2017-Nov-16 13:51N 34°32' E 135°19'0 0.0
2017-Nov-16 13:15N 34°32' E 135°19'0 0.0
2017-Nov-16 12:51N 34°32' E 135°19'0 0.0
2017-Nov-16 12:21N 34°32' E 135°19'0 0.0
2017-Nov-16 11:57N 34°32' E 135°19'0 0.0
2017-Nov-16 11:21N 34°32' E 135°19'0 0.0
2017-Nov-16 10:02N 34°32' E 135°19'0 2.0
2017-Nov-16 09:59N 34°32' E 135°19'612.4
2017-Nov-16 09:30N 34°34' E 135°12'713.7
2017-Nov-16 09:00N 34°35' E 135°04'510.2
2017-Nov-16 08:30N 34°37' E 134°58'  
Track history (hours):
 
Tides and Currents Weather Stations Pressure Air Temp Water Temp Dewpoint Dewpoint Depression Visibility Wind Speed Wind Dir Waves Ship Positions

Kokuhoumaru

Last reported at 2017-Nov-24 01:26 UTC. Time now 2017-Nov-24 04:13 UTC.
Position N 34°47' E 139°08'.

Length 81 m; draft 4.1 m.

Type: Tanker. MMSI: 431000628.

Date/timePositionNaut miles runAvg speedWind from/ knotsBaromVisibWave heightAir tempDewpointWater temp
2017-Nov-24 01:26N 34°47' E 139°08'511.5
2017-Nov-24 00:59N 34°52' E 139°12'911.6
2017-Nov-24 00:12N 34°58' E 139°20'311.2
2017-Nov-23 23:56N 34°59' E 139°23'611.4
2017-Nov-23 23:24N 35°02' E 139°29'511.8
2017-Nov-23 23:00N 35°04' E 139°34'612.5
2017-Nov-23 22:30N 35°07' E 139°41'612.1
2017-Nov-23 22:00N 35°12' E 139°46'611.9
2017-Nov-23 21:30N 35°18' E 139°44'510.8
2017-Nov-23 21:00N 35°23' E 139°45'0 0.7
2017-Nov-23 20:26N 35°23' E 139°45'0 0.1
2017-Nov-23 19:59N 35°23' E 139°45'0 0.0
2017-Nov-23 19:29N 35°23' E 139°45'0 0.1
2017-Nov-23 18:59N 35°23' E 139°45'0 0.0
2017-Nov-23 18:29N 35°23' E 139°45'0 0.0
2017-Nov-23 17:59N 35°23' E 139°45'0 0.0
2017-Nov-23 17:29N 35°23' E 139°45'0 0.0
2017-Nov-23 16:59N 35°23' E 139°45'0 0.0
2017-Nov-23 16:29N 35°23' E 139°45'0 0.0
2017-Nov-23 15:59N 35°23' E 139°45'0 0.0
2017-Nov-23 15:29N 35°23' E 139°45'0 0.0
2017-Nov-23 14:59N 35°23' E 139°45'0 0.0
2017-Nov-23 14:29N 35°23' E 139°45'0 0.0
2017-Nov-23 13:59N 35°23' E 139°45'0 0.0
2017-Nov-23 13:29N 35°23' E 139°45'0 0.0
2017-Nov-23 12:59N 35°23' E 139°45'0 0.0
2017-Nov-23 12:29N 35°23' E 139°45'0 0.0
2017-Nov-23 11:59N 35°23' E 139°45'0 0.0
2017-Nov-23 11:29N 35°23' E 139°45'0 0.0
2017-Nov-23 10:59N 35°23' E 139°45'0 0.0
2017-Nov-23 10:29N 35°23' E 139°45'0 0.0
2017-Nov-23 09:59N 35°23' E 139°45'0 0.0
2017-Nov-23 09:29N 35°23' E 139°45'0 0.1
2017-Nov-23 08:59N 35°23' E 139°45'0 0.1
2017-Nov-23 08:29N 35°24' E 139°45'0 0.0
2017-Nov-23 07:59N 35°24' E 139°45'0 0.0
2017-Nov-23 07:29N 35°24' E 139°45'0 0.0
2017-Nov-23 06:59N 35°24' E 139°45'0 0.0
2017-Nov-23 06:29N 35°24' E 139°45'0 0.0
2017-Nov-23 05:59N 35°24' E 139°45'0 0.0
2017-Nov-23 05:29N 35°24' E 139°45'0 0.0
2017-Nov-23 05:00N 35°24' E 139°45'3 6.0
2017-Nov-23 04:30N 35°26' E 139°45'1 1.4
2017-Nov-23 03:56N 35°27' E 139°45'0 0.0
2017-Nov-23 03:29N 35°27' E 139°45'0 0.0
2017-Nov-23 02:59N 35°27' E 139°45'0 0.0
2017-Nov-23 01:41N 35°27' E 139°45'0 0.0
2017-Nov-23 01:26N 35°27' E 139°45'0 0.0
2017-Nov-23 00:05N 35°27' E 139°45'0 0.1
2017-Nov-22 23:59N 35°27' E 139°45'0 0.1
2017-Nov-22 23:29N 35°27' E 139°45'0 0.0
2017-Nov-22 22:59N 35°27' E 139°45'0 0.1
2017-Nov-22 22:29N 35°27' E 139°45'0 0.0
2017-Nov-22 21:59N 35°27' E 139°45'1 2.7
2017-Nov-22 21:30N 35°28' E 139°44'0 0.2
2017-Nov-22 20:59N 35°28' E 139°44'0 0.0
2017-Nov-22 20:29N 35°28' E 139°44'0 0.0
2017-Nov-22 19:59N 35°28' E 139°44'0 0.0
2017-Nov-22 19:29N 35°28' E 139°44'  
2017-Nov-17 05:22N 34°37' E 134°57'3 9.3
2017-Nov-17 05:00N 34°37' E 135°01'5 9.2
2017-Nov-17 04:30N 34°36' E 135°06'611.7
2017-Nov-17 04:00N 34°35' E 135°13'612.2
2017-Nov-17 03:30N 34°33' E 135°21'4 0.8
2017-Nov-16 23:08N 34°32' E 135°25'0 0.6
2017-Nov-16 22:59N 34°32' E 135°25'1 2.9
2017-Nov-16 22:30N 34°33' E 135°24'3 6.0
2017-Nov-16 21:57N 34°32' E 135°19'0 0.1
2017-Nov-16 20:45N 34°32' E 135°19'0 0.0
2017-Nov-16 20:15N 34°32' E 135°19'0 0.2
2017-Nov-16 19:57N 34°32' E 135°19'0 0.1
2017-Nov-16 19:15N 34°32' E 135°19'0 0.0
2017-Nov-16 18:57N 34°32' E 135°19'0 0.0
2017-Nov-16 18:15N 34°32' E 135°19'0 0.0
2017-Nov-16 17:39N 34°32' E 135°19'0 0.1
2017-Nov-16 17:21N 34°32' E 135°19'0 0.0
2017-Nov-16 15:33N 34°32' E 135°19'0 0.0
2017-Nov-16 15:15N 34°32' E 135°19'0 0.0
2017-Nov-16 14:57N 34°32' E 135°19'0 0.0
2017-Nov-16 14:27N 34°32' E 135°19'0 0.0
2017-Nov-16 13:51N 34°32' E 135°19'0 0.0
2017-Nov-16 13:15N 34°32' E 135°19'0 0.0
2017-Nov-16 12:51N 34°32' E 135°19'0 0.0
2017-Nov-16 12:21N 34°32' E 135°19'0 0.0
2017-Nov-16 11:57N 34°32' E 135°19'0 0.0
2017-Nov-16 11:21N 34°32' E 135°19'0 0.0
2017-Nov-16 10:02N 34°32' E 135°19'0 2.0
2017-Nov-16 09:59N 34°32' E 135°19'612.4
2017-Nov-16 09:30N 34°34' E 135°12'713.7
2017-Nov-16 09:00N 34°35' E 135°04'510.2
2017-Nov-16 08:30N 34°37' E 134°58'  

Dump ship's entire track history